Time;durP1;ratioP1;P1;durP2;ratioP2;P2;SDS_P1;SDS_P2;PMS_P1;PMS_P2;Temp;Humidity;BMP_temperature;BMP_pressure;BME280_temperature;BME280_humidity;BME280_pressure;Samples;Min_cycle;Max_cycle;Signal;HPM_P1;HPM_P2
2021/06/28 00:01:26;;;;;;;6.05;3.97;;;19.50;82.70;;;;;;5056121;28;20021;-86
2021/06/28 00:03:53;;;;;;;6.60;3.35;;;19.50;81.60;;;;;;5054658;28;20017;-87
2021/06/28 00:06:20;;;;;;;6.50;3.30;;;19.50;81.50;;;;;;5055435;28;20055;-87
2021/06/28 00:08:48;;;;;;;7.80;4.43;;;19.40;81.50;;;;;;5058356;28;20078;-88
2021/06/28 00:11:14;;;;;;;7.15;4.78;;;19.50;82.10;;;;;;5071061;28;20032;-88
2021/06/28 00:13:43;;;;;;;7.55;5.07;;;19.40;82.30;;;;;;5059574;28;20018;-89
2021/06/28 00:16:12;;;;;;;6.18;2.97;;;19.50;82.40;;;;;;5055037;28;20021;-85
2021/06/28 00:18:40;;;;;;;7.05;3.45;;;19.50;81.80;;;;;;5054389;28;20515;-85
2021/06/28 00:21:06;;;;;;;5.00;2.55;;;19.40;80.80;;;;;;5054407;28;20089;-84
2021/06/28 00:23:32;;;;;;;4.70;2.20;;;19.40;80.40;;;;;;5053486;28;20511;-84
2021/06/28 00:25:59;;;;;;;6.70;3.33;;;19.40;80.10;;;;;;5055943;28;20021;-85
2021/06/28 00:28:25;;;;;;;7.57;3.63;;;19.30;80.10;;;;;;5054733;28;20036;-84
2021/06/28 00:30:52;;;;;;;8.90;6.60;;;19.30;81.60;;;;;;5054131;28;20029;-83
2021/06/28 00:33:19;;;;;;;5.20;2.65;;;19.30;82.00;;;;;;5054338;28;20025;-85
2021/06/28 00:35:46;;;;;;;5.72;4.18;;;19.30;82.10;;;;;;5055030;28;20032;-84
2021/06/28 00:38:15;;;;;;;5.97;3.75;;;19.30;82.90;;;;;;5053722;28;20036;-83
2021/06/28 00:40:43;;;;;;;8.83;6.97;;;19.30;83.60;;;;;;5053620;28;20021;-85
2021/06/28 00:43:09;;;;;;;6.00;4.05;;;19.30;84.80;;;;;;5053675;28;20025;-84
2021/06/28 00:45:37;;;;;;;7.32;5.43;;;19.30;84.00;;;;;;5053007;28;20032;-83
2021/06/28 00:48:06;;;;;;;6.22;3.78;;;19.30;82.80;;;;;;5054060;28;20465;-84
2021/06/28 00:50:35;;;;;;;4.68;2.70;;;19.30;83.60;;;;;;5053592;28;20465;-84
2021/06/28 00:53:05;;;;;;;5.60;3.10;;;19.20;82.20;;;;;;5052869;28;20107;-83
2021/06/28 00:55:31;;;;;;;5.60;3.47;;;19.20;81.50;;;;;;5054727;28;20118;-89
2021/06/28 00:57:57;;;;;;;5.28;2.33;;;19.20;81.00;;;;;;5054531;28;20791;-88
2021/06/28 01:00:23;;;;;;;5.93;2.67;;;19.10;80.00;;;;;;5054354;28;20036;-84
2021/06/28 01:02:50;;;;;;;6.20;4.05;;;19.10;80.30;;;;;;5053549;28;20110;-84
2021/06/28 01:05:23;;;;;;;7.60;3.80;;;19.10;81.10;;;;;;5052957;28;20028;-85
2021/06/28 01:07:49;;;;;;;9.02;5.57;;;19.10;81.30;;;;;;5052978;28;20025;-83
2021/06/28 01:10:16;;;;;;;7.10;4.00;;;19.10;81.60;;;;;;5057082;28;20064;-85
2021/06/28 01:12:46;;;;;;;6.80;3.08;;;19.10;81.80;;;;;;5070254;28;20020;-85
2021/06/28 01:15:12;;;;;;;6.23;3.07;;;19.10;81.20;;;;;;5071167;28;20005;-85
2021/06/28 01:17:39;;;;;;;7.43;4.78;;;19.00;80.80;;;;;;5060549;28;20021;-84
2021/06/28 01:20:13;;;;;;;5.63;3.17;;;19.00;80.70;;;;;;5054763;28;20064;-84
2021/06/28 01:22:42;;;;;;;4.07;2.42;;;19.00;80.60;;;;;;5057535;28;20017;-84
2021/06/28 01:25:13;;;;;;;5.03;2.95;;;19.00;80.70;;;;;;5074833;28;20016;-85
2021/06/28 01:27:40;;;;;;;7.32;4.30;;;19.00;81.30;;;;;;5058312;28;20021;-85
2021/06/28 01:30:09;;;;;;;5.57;2.90;;;19.00;81.90;;;;;;5055429;28;20087;-85
2021/06/28 01:32:35;;;;;;;6.20;4.55;;;19.00;81.30;;;;;;5053470;28;20025;-84
2021/06/28 01:35:01;;;;;;;6.47;3.50;;;19.00;81.30;;;;;;5053226;28;20052;-84
2021/06/28 01:37:29;;;;;;;4.53;2.10;;;19.00;81.50;;;;;;5051964;28;20024;-84
2021/06/28 01:39:57;;;;;;;6.85;4.35;;;18.90;81.00;;;;;;5052930;28;20121;-84
2021/06/28 01:42:23;;;;;;;5.65;3.28;;;19.00;81.40;;;;;;5054235;28;20021;-86
2021/06/28 01:44:50;;;;;;;5.68;3.30;;;18.90;81.10;;;;;;5057281;28;20052;-84
2021/06/28 01:47:16;;;;;;;8.27;5.05;;;18.90;82.20;;;;;;5057935;28;20052;-85
2021/06/28 01:49:41;;;;;;;5.65;2.85;;;18.90;81.50;;;;;;5056771;28;20484;-85
2021/06/28 01:52:08;;;;;;;7.05;3.13;;;18.90;81.30;;;;;;5056135;28;20021;-84
2021/06/28 01:54:35;;;;;;;5.50;2.83;;;18.90;80.40;;;;;;5056598;28;20025;-84
2021/06/28 01:57:01;;;;;;;6.68;4.10;;;18.90;80.50;;;;;;5058094;28;20039;-91
2021/06/28 01:59:32;;;;;;;7.45;2.55;;;18.90;81.20;;;;;;5060067;28;20021;-88
2021/06/28 02:02:00;;;;;;;6.30;4.25;;;18.90;80.60;;;;;;5061860;28;20063;-89
2021/06/28 02:04:26;;;;;;;5.78;3.55;;;18.90;81.00;;;;;;5058017;28;20032;-89
2021/06/28 02:06:53;;;;;;;5.10;3.10;;;18.90;81.60;;;;;;5059291;28;20044;-89
2021/06/28 02:09:19;;;;;;;8.20;2.50;;;18.90;80.90;;;;;;5058343;28;20103;-88
2021/06/28 02:11:46;;;;;;;7.43;2.70;;;18.90;80.80;;;;;;5058451;28;20172;-86
2021/06/28 02:14:11;;;;;;;4.85;2.67;;;18.90;80.30;;;;;;5058743;28;20025;-88
2021/06/28 02:16:37;;;;;;;8.27;5.72;;;18.80;80.50;;;;;;5057250;28;20028;-88
2021/06/28 02:19:03;;;;;;;9.10;5.60;;;18.90;82.70;;;;;;5057798;28;20021;-86
2021/06/28 02:21:29;;;;;;;8.02;4.88;;;18.80;82.70;;;;;;5057852;28;20029;-86
2021/06/28 02:23:54;;;;;;;6.13;3.72;;;18.80;83.50;;;;;;5057448;28;20029;-84
2021/06/28 02:26:20;;;;;;;10.05;7.15;;;18.80;82.40;;;;;;5057695;28;20024;-87
2021/06/28 02:28:48;;;;;;;7.15;3.85;;;18.80;83.20;;;;;;5057779;28;20021;-85
2021/06/28 02:31:19;;;;;;;6.07;4.53;;;18.70;83.20;;;;;;5057434;28;20029;-87
2021/06/28 02:33:45;;;;;;;6.63;5.00;;;18.70;83.40;;;;;;5060950;28;20036;-87
2021/06/28 02:36:11;;;;;;;8.50;5.88;;;18.70;84.10;;;;;;5062563;28;20021;-87
2021/06/28 02:38:39;;;;;;;6.30;4.68;;;18.70;85.20;;;;;;5073194;28;20037;-86
2021/06/28 02:41:06;;;;;;;6.57;4.47;;;18.70;84.70;;;;;;5058180;28;20477;-83
2021/06/28 02:43:32;;;;;;;9.30;5.50;;;18.70;84.70;;;;;;5055575;28;20021;-84
2021/06/28 02:45:58;;;;;;;7.10;5.75;;;18.70;85.10;;;;;;5055836;28;20116;-85
2021/06/28 02:48:24;;;;;;;5.57;3.28;;;18.70;85.20;;;;;;5056345;28;20106;-84
2021/06/28 02:50:51;;;;;;;6.32;3.47;;;18.60;84.50;;;;;;5056093;28;20025;-85
2021/06/28 02:53:17;;;;;;;7.57;5.07;;;18.60;84.60;;;;;;5056010;28;20048;-86
2021/06/28 02:55:47;;;;;;;5.75;3.92;;;18.60;85.10;;;;;;5055640;28;20116;-84
2021/06/28 02:58:14;;;;;;;7.25;4.20;;;18.60;85.30;;;;;;5056297;28;20041;-83
2021/06/28 03:00:40;;;;;;;6.18;4.22;;;18.60;85.00;;;;;;5059037;28;20037;-88
2021/06/28 03:03:06;;;;;;;8.63;6.10;;;18.50;85.30;;;;;;5067449;28;20468;-87
2021/06/28 03:05:31;;;;;;;8.10;5.70;;;18.50;86.00;;;;;;5067745;28;20392;-87
2021/06/28 03:07:57;;;;;;;8.82;5.45;;;18.50;86.60;;;;;;5061921;28;20028;-85
2021/06/28 03:10:24;;;;;;;9.38;6.38;;;18.50;87.20;;;;;;5056813;28;20376;-84
2021/06/28 03:12:49;;;;;;;8.38;6.25;;;18.50;87.20;;;;;;5055380;28;20032;-83
2021/06/28 03:15:18;;;;;;;7.07;5.25;;;18.50;88.00;;;;;;5058901;28;20413;-85
2021/06/28 03:17:44;;;;;;;6.65;5.47;;;18.50;88.20;;;;;;5055737;28;20025;-85
2021/06/28 03:20:12;;;;;;;8.40;5.57;;;18.50;88.00;;;;;;5056886;28;20029;-86
2021/06/28 03:22:40;;;;;;;7.93;5.47;;;18.50;87.10;;;;;;5055434;28;20107;-85
2021/06/28 03:25:09;;;;;;;6.20;4.35;;;18.50;86.70;;;;;;5056997;28;20031;-85
2021/06/28 03:27:35;;;;;;;9.20;5.70;;;18.50;86.60;;;;;;5068021;28;20112;-89
2021/06/28 03:30:06;;;;;;;6.43;4.90;;;18.40;87.10;;;;;;5074660;28;20029;-87
2021/06/28 03:32:32;;;;;;;10.75;5.93;;;18.50;87.00;;;;;;5071180;28;20036;-89
2021/06/28 03:34:58;;;;;;;8.13;6.28;;;18.50;87.30;;;;;;5056044;28;20380;-87
2021/06/28 03:37:24;;;;;;;7.80;5.30;;;18.50;87.80;;;;;;5056513;28;20029;-87
2021/06/28 03:39:50;;;;;;;8.20;6.40;;;18.40;88.10;;;;;;5054246;28;20120;-85
2021/06/28 03:42:16;;;;;;;10.35;7.45;;;18.50;88.70;;;;;;5054150;28;20060;-83
2021/06/28 03:44:42;;;;;;;11.18;6.53;;;18.40;88.70;;;;;;5054385;28;20120;-84
2021/06/28 03:47:08;;;;;;;7.45;4.70;;;18.40;88.70;;;;;;5055231;28;20029;-85
2021/06/28 03:49:34;;;;;;;8.02;4.80;;;18.40;88.50;;;;;;5057271;28;20029;-85
2021/06/28 03:52:00;;;;;;;6.78;4.50;;;18.40;87.90;;;;;;5059191;28;20031;-87
2021/06/28 03:54:25;;;;;;;8.65;6.75;;;18.40;87.20;;;;;;5055263;28;20052;-86
2021/06/28 03:56:51;;;;;;;6.03;3.90;;;18.40;88.20;;;;;;5055113;28;20102;-87
2021/06/28 03:59:20;;;;;;;7.78;6.18;;;18.40;87.20;;;;;;5055091;28;20025;-87
2021/06/28 04:01:46;;;;;;;7.75;6.00;;;18.40;87.10;;;;;;5055297;28;20476;-87
2021/06/28 04:04:11;;;;;;;10.25;6.18;;;18.40;86.60;;;;;;5055988;28;20033;-85
2021/06/28 04:06:37;;;;;;;8.60;6.72;;;18.50;87.20;;;;;;5054210;28;20021;-86
2021/06/28 04:09:06;;;;;;;8.63;6.95;;;18.50;87.50;;;;;;5054770;28;20024;-86
2021/06/28 04:11:32;;;;;;;8.80;6.97;;;18.50;87.70;;;;;;5054660;28;20108;-86
2021/06/28 04:13:58;;;;;;;7.75;6.38;;;18.50;88.10;;;;;;5054816;28;20061;-87
2021/06/28 04:16:25;;;;;;;10.52;8.02;;;18.50;88.50;;;;;;5055894;28;20021;-88
2021/06/28 04:18:51;;;;;;;10.38;7.20;;;18.50;89.40;;;;;;5054997;28;20068;-82
2021/06/28 04:21:17;;;;;;;9.50;6.95;;;18.60;88.90;;;;;;5054165;28;20022;-87
2021/06/28 04:23:43;;;;;;;9.50;7.20;;;18.60;89.00;;;;;;5054729;28;20040;-88
2021/06/28 04:26:09;;;;;;;7.43;5.53;;;18.60;89.10;;;;;;5054867;28;20397;-87
2021/06/28 04:28:35;;;;;;;8.75;6.22;;;18.60;88.30;;;;;;5059347;28;20025;-87
2021/06/28 04:31:01;;;;;;;7.05;5.65;;;18.60;87.00;;;;;;5054385;28;20091;-87
2021/06/28 04:33:27;;;;;;;9.93;6.88;;;18.60;84.40;;;;;;5054658;28;20055;-84
2021/06/28 04:35:53;;;;;;;7.70;4.88;;;18.70;85.90;;;;;;5055554;28;20100;-86
2021/06/28 04:38:19;;;;;;;8.20;6.47;;;18.70;86.60;;;;;;5054832;28;20036;-87
2021/06/28 04:40:46;;;;;;;8.10;5.82;;;18.80;87.20;;;;;;5054511;28;20033;-87
2021/06/28 04:43:12;;;;;;;7.82;5.25;;;18.80;86.70;;;;;;5055424;28;20028;-88
2021/06/28 04:45:38;;;;;;;6.85;4.78;;;18.90;86.60;;;;;;5056038;28;20057;-89
2021/06/28 04:48:05;;;;;;;6.63;3.60;;;19.00;85.70;;;;;;5055405;28;20025;-86
2021/06/28 04:50:34;;;;;;;6.13;3.83;;;19.10;83.60;;;;;;5056001;28;20020;-87
2021/06/28 04:53:03;;;;;;;7.53;5.22;;;19.10;83.50;;;;;;5061713;28;20063;-87
2021/06/28 04:55:32;;;;;;;9.73;8.02;;;19.20;83.50;;;;;;5066031;28;20033;-87
2021/06/28 04:57:58;;;;;;;6.90;4.87;;;19.30;84.60;;;;;;5055225;28;20175;-87
2021/06/28 05:00:26;;;;;;;6.55;4.03;;;19.40;83.70;;;;;;5057452;28;20025;-88
2021/06/28 05:02:51;;;;;;;9.48;5.20;;;19.50;82.60;;;;;;5065298;28;20092;-87
2021/06/28 05:05:18;;;;;;;10.70;8.88;;;19.60;82.70;;;;;;5063667;28;20373;-87
2021/06/28 05:07:45;;;;;;;9.07;7.32;;;19.70;83.50;;;;;;5059365;28;20021;-88
2021/06/28 05:10:12;;;;;;;8.18;6.65;;;19.80;83.70;;;;;;5063312;28;20063;-87
2021/06/28 05:12:38;;;;;;;10.27;7.38;;;19.80;81.80;;;;;;5061344;28;20021;-86
2021/06/28 05:15:06;;;;;;;10.40;7.53;;;19.90;84.00;;;;;;5056712;28;20029;-87
2021/06/28 05:17:32;;;;;;;11.88;9.85;;;20.00;84.20;;;;;;5055102;28;20029;-86
2021/06/28 05:19:57;;;;;;;8.90;7.85;;;20.10;82.60;;;;;;5059111;28;20021;-89
2021/06/28 05:22:23;;;;;;;11.50;9.18;;;20.20;82.20;;;;;;5061618;28;20021;-87
2021/06/28 05:24:49;;;;;;;10.95;6.20;;;20.30;83.80;;;;;;5059218;28;20021;-87
2021/06/28 05:27:15;;;;;;;12.68;9.70;;;20.40;82.60;;;;;;5058771;28;20040;-87
2021/06/28 05:29:42;;;;;;;13.48;11.05;;;20.40;83.00;;;;;;5061744;28;20017;-88
2021/06/28 05:32:08;;;;;;;8.73;7.15;;;20.50;81.70;;;;;;5077735;28;20025;-86
2021/06/28 05:34:34;;;;;;;11.48;8.60;;;20.50;81.70;;;;;;5079597;28;20077;-87
2021/06/28 05:36:59;;;;;;;12.27;10.60;;;20.60;81.90;;;;;;5077294;28;20127;-87
2021/06/28 05:39:25;;;;;;;9.88;8.20;;;20.60;82.40;;;;;;5062489;28;20025;-88
2021/06/28 05:41:51;;;;;;;9.38;7.03;;;20.60;80.90;;;;;;5062595;28;20021;-89
2021/06/28 05:44:16;;;;;;;9.50;7.57;;;20.60;80.10;;;;;;5059641;28;20396;-88
2021/06/28 05:46:42;;;;;;;12.63;8.77;;;20.70;80.50;;;;;;5058381;28;20028;-87
2021/06/28 05:49:08;;;;;;;12.02;9.68;;;20.80;81.10;;;;;;5058064;28;20356;-86
2021/06/28 05:51:34;;;;;;;11.10;8.95;;;20.80;82.10;;;;;;5058634;28;20091;-88
2021/06/28 05:53:59;;;;;;;11.80;9.93;;;20.90;82.40;;;;;;5059558;28;20028;-88
2021/06/28 05:56:28;;;;;;;7.95;5.25;;;21.00;81.70;;;;;;5057650;28;20144;-85
2021/06/28 05:58:54;;;;;;;12.02;10.38;;;21.10;78.60;;;;;;5059573;28;20072;-88
2021/06/28 06:01:20;;;;;;;12.55;9.57;;;21.10;80.00;;;;;;5060112;28;20064;-87
2021/06/28 06:03:45;;;;;;;10.93;9.30;;;21.20;79.30;;;;;;5060155;28;20073;-89
2021/06/28 06:06:11;;;;;;;10.93;9.77;;;21.30;79.50;;;;;;5061532;28;20028;-89
2021/06/28 06:08:38;;;;;;;11.25;7.72;;;21.40;80.50;;;;;;5061188;28;20442;-90
2021/06/28 06:11:04;;;;;;;10.23;7.82;;;21.40;78.90;;;;;;5060791;28;20025;-90
2021/06/28 06:13:30;;;;;;;11.80;8.57;;;21.50;79.90;;;;;;5061000;28;20021;-91
2021/06/28 06:15:58;;;;;;;11.10;9.27;;;21.50;80.00;;;;;;5062093;28;20025;-91
2021/06/28 06:18:24;;;;;;;13.32;11.93;;;21.60;79.50;;;;;;5076368;28;20029;-90
2021/06/28 06:20:50;;;;;;;12.05;10.30;;;21.60;80.40;;;;;;5066955;28;20025;-90
2021/06/28 06:23:16;;;;;;;15.30;11.45;;;21.70;79.90;;;;;;5067445;28;20025;-88
2021/06/28 06:25:44;;;;;;;15.07;13.18;;;21.80;79.20;;;;;;5069369;28;20029;-87
2021/06/28 06:28:11;;;;;;;13.20;11.70;;;21.90;79.20;;;;;;5057982;28;20048;-87
2021/06/28 06:30:37;;;;;;;15.55;12.10;;;21.90;78.20;;;;;;5056828;28;20020;-84
2021/06/28 06:33:03;;;;;;;13.18;11.00;;;21.90;77.40;;;;;;5057512;28;20063;-83
2021/06/28 06:35:29;;;;;;;12.60;9.93;;;22.00;78.10;;;;;;5058592;28;20033;-82
2021/06/28 06:37:59;;;;;;;15.73;13.30;;;22.10;77.50;;;;;;5055498;28;20074;-83
2021/06/28 06:40:26;;;;;;;10.32;7.47;;;22.10;78.00;;;;;;5056956;28;20020;-82
2021/06/28 06:42:53;;;;;;;15.82;12.77;;;22.20;75.70;;;;;;5064061;28;20028;-83
2021/06/28 06:45:20;;;;;;;11.43;8.85;;;22.30;75.90;;;;;;5069842;28;20040;-84
2021/06/28 06:47:46;;;;;;;7.43;5.63;;;22.40;76.00;;;;;;5055017;28;20063;-83
2021/06/28 06:50:12;;;;;;;11.10;9.18;;;22.60;71.60;;;;;;5055302;28;20052;-83
2021/06/28 06:52:40;;;;;;;15.93;14.15;;;22.70;73.00;;;;;;5057288;28;20017;-84
2021/06/28 06:55:08;;;;;;;8.68;5.55;;;22.70;74.40;;;;;;5062895;28;20179;-82
2021/06/28 06:57:37;;;;;;;7.22;4.72;;;22.70;71.10;;;;;;5065094;28;20409;-83
2021/06/28 07:00:09;;;;;;;5.90;3.80;;;22.80;69.70;;;;;;5057397;28;20359;-83
2021/06/28 07:02:35;;;;;;;5.95;3.83;;;22.90;69.10;;;;;;5062690;28;20441;-84
2021/06/28 07:05:00;;;;;;;8.70;5.32;;;23.00;68.60;;;;;;5064051;28;20531;-82
2021/06/28 07:07:26;;;;;;;6.55;4.05;;;23.20;68.50;;;;;;5061244;28;20047;-83
2021/06/28 07:09:52;;;;;;;6.95;4.65;;;23.30;67.80;;;;;;5060465;28;20112;-84
2021/06/28 07:12:17;;;;;;;7.30;3.42;;;23.40;67.10;;;;;;5054103;28;20038;-84
2021/06/28 07:14:43;;;;;;;5.70;3.78;;;23.60;66.60;;;;;;5061887;28;20078;-83
2021/06/28 07:17:10;;;;;;;5.90;4.05;;;23.70;65.80;;;;;;5064136;28;20021;-87
2021/06/28 07:19:36;;;;;;;13.50;10.82;;;23.70;65.80;;;;;;5055091;28;20037;-84
2021/06/28 07:22:03;;;;;;;16.52;12.85;;;23.70;67.70;;;;;;5056310;28;20079;-86
2021/06/28 07:24:29;;;;;;;5.88;4.32;;;23.80;69.60;;;;;;5055770;28;20024;-84
2021/06/28 07:26:55;;;;;;;13.35;11.30;;;23.80;66.00;;;;;;5055973;28;20124;-82
2021/06/28 07:29:25;;;;;;;15.43;12.48;;;23.90;69.30;;;;;;5054839;28;20071;-82
2021/06/28 07:31:51;;;;;;;15.50;12.75;;;23.90;70.00;;;;;;5058936;28;20035;-81
2021/06/28 07:34:18;;;;;;;10.77;9.23;;;23.80;70.80;;;;;;5059740;28;20097;-82
2021/06/28 07:36:44;;;;;;;13.50;10.98;;;23.80;68.50;;;;;;5076032;28;20005;-81
2021/06/28 07:39:10;;;;;;;12.90;10.60;;;23.90;67.60;;;;;;5060360;28;20057;-83
2021/06/28 07:41:35;;;;;;;15.05;11.88;;;24.00;68.60;;;;;;5054674;28;20032;-82
2021/06/28 07:44:06;;;;;;;18.60;14.30;;;24.20;70.40;;;;;;5054308;28;20384;-83
2021/06/28 07:46:31;;;;;;;;;;;24.40;69.30;;;;;;5054618;28;20028;-83
2021/06/28 07:48:57;;;;;;;9.95;8.07;;;24.50;69.00;;;;;;5053916;28;19908;-83
2021/06/28 07:51:23;;;;;;;10.15;8.77;;;24.60;66.80;;;;;;5054711;28;20020;-82
2021/06/28 07:53:48;;;;;;;12.02;7.93;;;24.50;67.50;;;;;;5056803;28;20017;-83
2021/06/28 07:56:18;;;;;;;16.23;13.93;;;24.50;66.60;;;;;;5056514;28;20020;-84
2021/06/28 07:58:50;;;;;;;14.97;11.23;;;24.60;67.70;;;;;;5056208;28;20443;-83
2021/06/28 08:01:17;;;;;;;9.48;7.50;;;24.70;67.70;;;;;;5059979;28;20107;-83
2021/06/28 08:03:47;;;;;;;13.82;9.98;;;24.70;65.50;;;;;;5055397;28;20028;-81
2021/06/28 08:06:14;;;;;;;17.23;15.00;;;24.80;67.20;;;;;;5053970;28;20028;-82
2021/06/28 08:08:41;;;;;;;11.43;8.13;;;24.90;67.30;;;;;;5054450;28;20064;-84
2021/06/28 08:11:08;;;;;;;17.58;14.93;;;24.90;65.70;;;;;;5053109;28;20535;-84
2021/06/28 08:13:55;;;;;;;11.73;9.05;;;24.90;67.10;;;;;;5053929;28;20033;-86
2021/06/28 08:16:22;;;;;;;8.70;6.03;;;25.10;65.60;;;;;;5053098;28;20045;-85
2021/06/28 08:18:49;;;;;;;13.38;7.70;;;25.10;63.10;;;;;;5053120;28;20469;-85
2021/06/28 08:21:15;;;;;;;15.73;13.38;;;25.30;63.30;;;;;;5053563;28;20466;-86
2021/06/28 08:23:41;;;;;;;9.10;6.82;;;25.40;65.70;;;;;;5054821;28;20028;-86
2021/06/28 08:26:08;;;;;;;14.45;12.13;;;25.50;64.80;;;;;;5055240;28;20025;-86
2021/06/28 08:28:33;;;;;;;9.07;7.57;;;25.60;65.80;;;;;;5055947;28;20021;-85
2021/06/28 08:30:59;;;;;;;13.40;11.95;;;25.80;66.10;;;;;;5057938;28;20028;-86
2021/06/28 08:33:25;;;;;;;14.15;11.88;;;25.90;64.90;;;;;;5068344;28;20039;-86
2021/06/28 08:35:51;;;;;;;13.00;10.32;;;26.10;65.10;;;;;;5065791;28;20454;-86
2021/06/28 08:38:16;;;;;;;16.45;14.02;;;26.20;65.10;;;;;;5056853;28;20060;-86
2021/06/28 08:40:43;;;;;;;11.40;9.40;;;26.40;65.50;;;;;;5058591;28;20112;-86
2021/06/28 08:43:09;;;;;;;10.35;7.97;;;26.50;64.80;;;;;;5064672;28;20036;-84
2021/06/28 08:45:41;;;;;;;11.30;9.75;;;26.70;63.80;;;;;;5064718;28;20149;-86
2021/06/28 08:48:07;;;;;;;12.68;8.98;;;26.70;63.50;;;;;;5055679;28;20124;-86
2021/06/28 08:50:35;;;;;;;9.80;8.55;;;26.80;63.70;;;;;;5055694;28;20032;-86
2021/06/28 08:53:02;;;;;;;12.90;10.85;;;27.00;63.80;;;;;;5054817;28;20033;-86
2021/06/28 08:55:27;;;;;;;11.80;9.50;;;27.20;62.70;;;;;;5054456;28;20025;-87
2021/06/28 08:57:53;;;;;;;8.88;7.70;;;27.30;62.30;;;;;;5053674;28;20510;-86
2021/06/28 09:00:19;;;;;;;13.80;12.40;;;27.40;62.70;;;;;;5053457;28;20024;-86
2021/06/28 09:02:53;;;;;;;9.25;8.18;;;27.60;62.70;;;;;;5055370;28;20029;-87
2021/06/28 09:05:19;;;;;;;12.13;10.50;;;27.70;61.90;;;;;;5054256;28;20112;-88
2021/06/28 09:07:45;;;;;;;13.52;11.13;;;27.80;61.30;;;;;;5054196;28;20063;-87
2021/06/28 09:10:34;;;;;;;11.00;9.52;;;27.80;60.30;;;;;;5053811;28;20022;-87
2021/06/28 09:13:00;;;;;;;11.05;8.88;;;27.90;60.80;;;;;;5055135;28;20118;-86
2021/06/28 09:15:41;;;;;;;15.60;11.98;;;28.10;60.80;;;;;;5055926;28;20029;-86
2021/06/28 09:18:23;;;;;;;10.07;7.35;;;28.30;60.20;;;;;;5057298;28;20071;-84
2021/06/28 09:20:50;;;;;;;10.25;9.10;;;28.30;59.90;;;;;;5061114;28;20035;-87
2021/06/28 09:23:22;;;;;;;9.27;6.82;;;28.40;60.30;;;;;;5055550;28;20055;-84
2021/06/28 09:25:48;;;;;;;8.70;5.95;;;28.60;60.00;;;;;;5053470;28;20017;-87
2021/06/28 09:28:14;;;;;;;14.80;12.93;;;28.80;58.30;;;;;;5056959;28;20060;-87
2021/06/28 09:30:54;;;;;;;13.45;12.05;;;29.00;58.10;;;;;;5055935;28;20017;-88
2021/06/28 09:33:20;;;;;;;11.70;10.40;;;29.20;57.70;;;;;;5054446;28;20021;-86
2021/06/28 09:35:46;;;;;;;10.57;8.02;;;29.30;57.90;;;;;;5054508;28;20232;-88
2021/06/28 09:38:36;;;;;;;12.13;10.35;;;29.20;57.40;;;;;;5066578;28;20312;-86
2021/06/28 09:41:20;;;;;;;;;;;29.20;57.30;;;;;;5072670;28;20033;-87
2021/06/28 09:43:46;;;;;;;9.88;8.65;;;29.00;57.10;;;;;;5085950;28;19960;-88
2021/06/28 09:46:17;;;;;;;10.90;8.68;;;28.60;58.00;;;;;;5054135;28;20051;-88
2021/06/28 09:48:47;;;;;;;6.63;5.18;;;28.40;58.60;;;;;;5053737;28;20043;-88
2021/06/28 09:51:28;;;;;;;7.03;5.40;;;28.20;59.10;;;;;;5052580;28;20108;-88
2021/06/28 09:54:05;;;;;;;6.85;5.15;;;28.10;59.80;;;;;;5053252;28;20057;-87
2021/06/28 09:56:38;;;;;;;7.65;6.10;;;27.90;60.20;;;;;;5081826;28;20029;-86
2021/06/28 09:59:25;;;;;;;8.05;6.57;;;27.70;60.50;;;;;;5056803;28;20551;-87
2021/06/28 10:02:11;;;;;;;9.00;7.60;;;27.60;60.50;;;;;;5053005;28;20017;-88
2021/06/28 10:04:59;;;;;;;8.70;6.75;;;27.40;60.90;;;;;;5070451;28;20086;-87
2021/06/28 10:07:39;;;;;;;6.65;4.95;;;27.40;61.30;;;;;;5056904;28;20381;-88
2021/06/28 10:10:15;;;;;;;7.28;5.75;;;27.20;61.70;;;;;;5057359;28;20013;-88
2021/06/28 10:12:47;;;;;;;9.10;5.65;;;27.10;62.40;;;;;;5057757;28;20107;-88
2021/06/28 10:15:16;;;;;;;8.65;6.57;;;27.10;62.60;;;;;;5056151;28;20037;-88
2021/06/28 10:17:43;;;;;;;8.60;6.43;;;27.10;62.30;;;;;;5057318;28;20033;-88
2021/06/28 10:20:13;;;;;;;9.02;6.90;;;27.10;62.10;;;;;;5058305;28;20029;-88
2021/06/28 10:22:40;;;;;;;6.93;5.15;;;26.90;62.20;;;;;;5067121;28;20076;-86
2021/06/28 10:25:07;;;;;;;7.63;5.22;;;26.80;63.10;;;;;;5066120;28;20028;-89
2021/06/28 10:27:34;;;;;;;7.25;6.22;;;26.60;63.30;;;;;;5061508;28;20025;-88
2021/06/28 10:30:00;;;;;;;8.38;7.07;;;26.50;63.80;;;;;;5064557;28;20028;-88
2021/06/28 10:32:30;;;;;;;8.07;6.40;;;26.40;63.50;;;;;;5065409;28;20033;-87
2021/06/28 10:34:56;;;;;;;8.32;6.72;;;26.40;63.90;;;;;;5069600;28;20032;-89
2021/06/28 10:37:46;;;;;;;7.78;6.70;;;26.40;64.00;;;;;;5059403;28;20029;-88
2021/06/28 10:40:22;;;;;;;8.80;6.13;;;26.40;64.10;;;;;;5056614;28;20025;-87
2021/06/28 10:42:55;;;;;;;10.10;8.20;;;26.40;64.20;;;;;;5055589;28;20079;-88
2021/06/28 10:45:43;;;;;;;10.27;7.80;;;26.40;64.20;;;;;;5055953;28;20082;-89
2021/06/28 10:48:16;;;;;;;11.43;8.43;;;26.30;64.70;;;;;;5055796;28;20429;-88
2021/06/28 10:51:04;;;;;;;13.15;11.13;;;26.20;65.00;;;;;;5056065;28;20067;-88
2021/06/28 10:53:33;;;;;;;8.10;6.72;;;26.10;65.50;;;;;;5056730;28;20075;-87
2021/06/28 10:58:55;;;;;;;;;;;26.10;65.50;;;;;;5058852;28;20472;-88
2021/06/28 11:01:39;;;;;;;9.90;7.72;;;26.00;65.90;;;;;;5056799;28;20353;-88
2021/06/28 11:04:27;;;;;;;9.10;7.07;;;26.00;65.90;;;;;;5056561;28;20025;-88
2021/06/28 11:06:53;;;;;;;8.52;6.05;;;25.90;66.00;;;;;;5056962;28;20032;-87
2021/06/28 11:09:40;;;;;;;9.40;8.02;;;25.80;66.20;;;;;;5080337;28;20029;-87
2021/06/28 11:12:08;;;;;;;10.80;8.05;;;25.70;66.60;;;;;;5077132;28;20110;-87
2021/06/28 11:14:38;;;;;;;9.73;8.25;;;25.70;66.90;;;;;;5075033;28;20140;-87
2021/06/28 11:17:08;;;;;;;;;;;25.50;67.00;;;;;;5059260;28;20119;-89
2021/06/28 11:19:51;;;;;;;11.57;7.65;;;25.50;67.20;;;;;;5058287;28;19892;-87
2021/06/28 11:22:36;;;;;;;10.30;8.10;;;25.50;67.40;;;;;;5074698;28;20029;-89
2021/06/28 11:25:21;;;;;;;9.60;8.07;;;25.40;67.60;;;;;;5074895;28;20104;-88
2021/06/28 11:28:14;;;;;;;9.63;8.60;;;25.30;67.70;;;;;;5060007;28;20024;-89
2021/06/28 11:31:06;;;;;;;9.77;7.03;;;25.30;67.90;;;;;;5058262;28;20111;-84
2021/06/28 11:33:34;;;;;;;10.05;8.10;;;25.30;68.00;;;;;;5055699;28;20025;-84
2021/06/28 11:36:05;;;;;;;10.05;7.47;;;25.20;67.70;;;;;;5057944;28;20021;-89
2021/06/28 11:38:42;;;;;;;9.02;6.60;;;25.20;67.80;;;;;;5058275;28;20552;-84
2021/06/28 11:41:08;;;;;;;10.32;7.13;;;25.20;68.00;;;;;;5059004;28;20482;-87
2021/06/28 11:43:50;;;;;;;7.57;6.30;;;25.30;67.90;;;;;;5087986;28;20051;-82
2021/06/28 11:46:33;;;;;;;10.02;8.00;;;25.20;68.40;;;;;;5073131;28;20033;-87
2021/06/28 11:49:13;;;;;;;10.15;7.10;;;25.20;69.30;;;;;;5079170;28;20033;-86
2021/06/28 11:51:49;;;;;;;9.23;6.43;;;25.10;69.90;;;;;;5055526;28;20021;-86
2021/06/28 11:54:29;;;;;;;8.07;6.35;;;25.10;70.20;;;;;;5054610;28;20087;-85
2021/06/28 11:57:02;;;;;;;8.15;6.10;;;25.10;70.10;;;;;;5055021;28;20028;-86
2021/06/28 11:59:29;;;;;;;8.63;6.72;;;25.10;70.20;;;;;;5055214;28;20036;-87
2021/06/28 12:01:57;;;;;;;8.13;6.78;;;25.10;70.30;;;;;;5054638;28;20025;-87
2021/06/28 12:04:30;;;;;;;7.45;5.57;;;25.10;70.20;;;;;;5054430;28;20025;-87
2021/06/28 12:06:56;;;;;;;8.55;5.85;;;25.10;69.90;;;;;;5054644;28;20033;-88
2021/06/28 12:09:24;;;;;;;8.98;6.38;;;25.10;69.60;;;;;;5055608;28;20094;-88
2021/06/28 12:11:52;;;;;;;9.57;7.70;;;25.20;70.00;;;;;;5075790;28;20009;-88
2021/06/28 12:14:36;;;;;;;8.27;7.13;;;25.10;70.20;;;;;;5087819;28;20032;-88
2021/06/28 12:17:08;;;;;;;8.27;6.13;;;25.10;70.20;;;;;;5071267;28;20024;-88
2021/06/28 12:19:34;;;;;;;8.25;5.47;;;25.20;70.10;;;;;;5070664;28;20108;-86
2021/06/28 12:22:16;;;;;;;7.25;6.25;;;25.20;69.60;;;;;;5061514;28;20017;-87
2021/06/28 12:24:43;;;;;;;7.70;6.10;;;25.30;68.80;;;;;;5065170;28;20094;-87
2021/06/28 12:27:12;;;;;;;8.25;5.78;;;25.30;68.50;;;;;;5054179;28;20458;-86
2021/06/28 12:29:42;;;;;;;7.72;5.72;;;25.30;68.30;;;;;;5053947;28;20529;-87
2021/06/28 12:32:10;;;;;;;;;;;25.30;68.20;;;;;;5070862;28;20458;-86
2021/06/28 12:34:37;;;;;;;7.97;5.10;;;25.30;67.50;;;;;;5070971;28;19908;-86
2021/06/28 12:37:04;;;;;;;9.10;6.20;;;25.40;67.20;;;;;;5054623;28;20031;-86
2021/06/28 12:39:31;;;;;;;8.05;5.45;;;25.30;67.60;;;;;;5053975;28;20524;-87
2021/06/28 12:42:14;;;;;;;8.63;6.57;;;25.30;67.80;;;;;;5053935;28;20028;-85
2021/06/28 12:44:41;;;;;;;9.55;6.63;;;25.30;67.90;;;;;;5054133;28;20086;-86
2021/06/28 12:47:09;;;;;;;8.82;6.28;;;25.20;67.80;;;;;;5053297;28;20090;-86
2021/06/28 12:49:35;;;;;;;7.28;6.05;;;25.20;68.40;;;;;;5053821;28;20019;-87
2021/06/28 12:52:22;;;;;;;18.63;9.95;;;25.30;68.50;;;;;;5052792;28;20143;-85
2021/06/28 12:55:06;;;;;;;10.43;9.05;;;25.30;69.50;;;;;;5054038;28;20025;-86